Alianca Shanghai — A8CQ5 — position and weather

sailwx.info

Track history (hours):
 
Tides and Currents Weather Stations Pressure Air Temp Water Temp Dewpoint Dewpoint Depression Visibility Wind Speed Wind Dir Waves Ship Positions

Alianca Shanghai

Last reported at 2017-Jan-07 02:16 UTC. Time now 2017-Jan-24 00:55 UTC.
Position N 14°44' W 017°42'.
Warning: this ship's position is 16 days out of date.

Length 199.9 m; beam 29.8 m; draft 11.6 m.

Type: Ship. MMSI: 636016014.

Date/timePositionNaut miles runAvg speedWind from/ knotsBaromVisibWave heightAir tempDewpointWater temp
2017-Jan-07 02:16N 14°44' W 017°42'1115.5
2017-Jan-07 01:33N 14°55' W 017°43'1615.5
2017-Jan-07 00:33N 15°11' W 017°42'74015.4
2017-Jan-05 00:22N 27°20' W 015°29'1315.2
2017-Jan-04 23:30N 27°33' W 015°24'1515.5
2017-Jan-04 22:33N 27°47' W 015°20'1615.6
2017-Jan-04 21:33N 28°02' W 015°20'7 5.7
2017-Jan-04 20:15N 28°08' W 015°25'0 0.0
2017-Jan-04 19:30N 28°08' W 015°25'0 0.0
2017-Jan-04 18:33N 28°08' W 015°25'0 0.0
2017-Jan-04 17:33N 28°08' W 015°25'0 0.0
2017-Jan-04 16:33N 28°08' W 015°25'0 0.0
2017-Jan-04 15:33N 28°08' W 015°25'0 0.0
2017-Jan-04 14:33N 28°08' W 015°25'0 0.0
2017-Jan-04 13:33N 28°08' W 015°25'0 0.0
2017-Jan-04 12:33N 28°08' W 015°25'0 0.0
2017-Jan-04 11:24N 28°08' W 015°25'0 0.0
2017-Jan-04 10:24N 28°08' W 015°25'0 0.0
2017-Jan-04 09:27N 28°08' W 015°25'0 0.0
2017-Jan-04 08:27N 28°08' W 015°25'0 0.0
2017-Jan-04 07:27N 28°08' W 015°25'0 0.0
2017-Jan-04 06:30N 28°08' W 015°25'0 0.0
2017-Jan-04 05:30N 28°08' W 015°25'0 0.4
2017-Jan-04 04:34N 28°08' W 015°25'6 6.0
2017-Jan-04 03:33N 28°10' W 015°19'1414.1
2017-Jan-04 02:33N 28°20' W 015°07'1515.5
2017-Jan-04 01:33N 28°31' W 014°55'1515.3
2017-Jan-04 00:33N 28°42' W 014°43'1515.4
2017-Jan-03 23:33N 28°53' W 014°31'1615.7
2017-Jan-03 22:33N 29°05' W 014°19'1615.6
2017-Jan-03 21:33N 29°16' W 014°06'1515.4
2017-Jan-03 20:33N 29°26' W 013°53'1515.4
2017-Jan-03 19:33N 29°37' W 013°40'  
2016-Dec-31 06:21N 37°17' W 009°21'1215.1
2016-Dec-31 05:33N 37°27' W 009°13'1515.3
2016-Dec-31 04:33N 37°39' W 009°02'1515.1
2016-Dec-31 03:33N 37°52' W 008°52'4 4.2
2016-Dec-31 02:32N 37°56' W 008°51'0 0.0
2016-Dec-31 01:32N 37°56' W 008°51'0 0.0
2016-Dec-31 00:32N 37°56' W 008°51'0 0.0
2016-Dec-30 23:32N 37°56' W 008°51'0 0.0
2016-Dec-30 22:32N 37°56' W 008°51'0 0.0
2016-Dec-30 21:32N 37°56' W 008°51'0 0.0
2016-Dec-30 20:32N 37°56' W 008°51'0 0.0
2016-Dec-30 19:32N 37°56' W 008°51'0 0.0
2016-Dec-30 18:32N 37°56' W 008°51'0 0.0
2016-Dec-30 17:32N 37°56' W 008°51'0 0.0
2016-Dec-30 16:32N 37°56' W 008°51'0 0.0
2016-Dec-30 15:32N 37°56' W 008°51'0 0.0
2016-Dec-30 14:32N 37°56' W 008°51'0 0.0
2016-Dec-30 13:32N 37°56' W 008°51'1 1.0
2016-Dec-30 12:33N 37°55' W 008°50'4 3.9
2016-Dec-30 11:33N 37°52' W 008°53'6 6.3
2016-Dec-30 10:33N 37°49' W 008°60'0 0.4
2016-Dec-30 09:33N 37°49' W 008°60'1 0.6
2016-Dec-30 08:33N 37°49' W 008°59'0 0.4
2016-Dec-30 07:33N 37°50' W 008°59'2 2.4
2016-Dec-30 06:33N 37°51' W 009°01'1 0.6
2016-Dec-30 05:33N 37°51' W 009°01'1 0.5
2016-Dec-30 04:33N 37°50' W 009°00'0 0.4
2016-Dec-30 03:34N 37°50' W 008°60'1 1.5
2016-Dec-30 02:34N 37°52' W 009°00'0 0.4
2016-Dec-30 01:33N 37°52' W 008°59'1 1.0
2016-Dec-30 00:34N 37°51' W 009°00'2 1.8
2016-Dec-29 23:34N 37°52' W 009°02'1 0.8
2016-Dec-29 22:34N 37°52' W 009°02'1 0.8
2016-Dec-29 21:33N 37°51' W 009°00'3 2.6
2016-Dec-29 20:33N 37°53' W 009°03'9 8.7
2016-Dec-29 19:33N 37°59' W 009°11'9 9.1
2016-Dec-29 18:33N 38°05' W 009°20'10 9.6
2016-Dec-29 17:33N 38°11' W 009°29'1110.7
2016-Dec-29 16:33N 38°18' W 009°40'1414.0
2016-Dec-29 15:32N 38°28' W 009°53'1515.2
2016-Dec-29 14:32N 38°39' W 010°06'22415.7
2016-Dec-29 00:18N 42°23' W 010°07'16715.5
2016-Dec-28 13:33N 44°60' W 008°49'14315.4
2016-Dec-28 04:17N 47°06' W 007°12'3015.2
2016-Dec-28 02:20N 47°32' W 006°52'  
Track history (hours):
 
Tides and Currents Weather Stations Pressure Air Temp Water Temp Dewpoint Dewpoint Depression Visibility Wind Speed Wind Dir Waves Ship Positions

Alianca Shanghai

Last reported at 2017-Jan-07 02:16 UTC. Time now 2017-Jan-24 00:55 UTC.
Position N 14°44' W 017°42'.
Warning: this ship's position is 16 days out of date.

Length 199.9 m; beam 29.8 m; draft 11.6 m.

Type: Ship. MMSI: 636016014.

Date/timePositionNaut miles runAvg speedWind from/ knotsBaromVisibWave heightAir tempDewpointWater temp
2017-Jan-07 02:16N 14°44' W 017°42'1115.5
2017-Jan-07 01:33N 14°55' W 017°43'1615.5
2017-Jan-07 00:33N 15°11' W 017°42'74015.4
2017-Jan-05 00:22N 27°20' W 015°29'1315.2
2017-Jan-04 23:30N 27°33' W 015°24'1515.5
2017-Jan-04 22:33N 27°47' W 015°20'1615.6
2017-Jan-04 21:33N 28°02' W 015°20'7 5.7
2017-Jan-04 20:15N 28°08' W 015°25'0 0.0
2017-Jan-04 19:30N 28°08' W 015°25'0 0.0
2017-Jan-04 18:33N 28°08' W 015°25'0 0.0
2017-Jan-04 17:33N 28°08' W 015°25'0 0.0
2017-Jan-04 16:33N 28°08' W 015°25'0 0.0
2017-Jan-04 15:33N 28°08' W 015°25'0 0.0
2017-Jan-04 14:33N 28°08' W 015°25'0 0.0
2017-Jan-04 13:33N 28°08' W 015°25'0 0.0
2017-Jan-04 12:33N 28°08' W 015°25'0 0.0
2017-Jan-04 11:24N 28°08' W 015°25'0 0.0
2017-Jan-04 10:24N 28°08' W 015°25'0 0.0
2017-Jan-04 09:27N 28°08' W 015°25'0 0.0
2017-Jan-04 08:27N 28°08' W 015°25'0 0.0
2017-Jan-04 07:27N 28°08' W 015°25'0 0.0
2017-Jan-04 06:30N 28°08' W 015°25'0 0.0
2017-Jan-04 05:30N 28°08' W 015°25'0 0.4
2017-Jan-04 04:34N 28°08' W 015°25'6 6.0
2017-Jan-04 03:33N 28°10' W 015°19'1414.1
2017-Jan-04 02:33N 28°20' W 015°07'1515.5
2017-Jan-04 01:33N 28°31' W 014°55'1515.3
2017-Jan-04 00:33N 28°42' W 014°43'1515.4
2017-Jan-03 23:33N 28°53' W 014°31'1615.7
2017-Jan-03 22:33N 29°05' W 014°19'1615.6
2017-Jan-03 21:33N 29°16' W 014°06'1515.4
2017-Jan-03 20:33N 29°26' W 013°53'1515.4
2017-Jan-03 19:33N 29°37' W 013°40'  
2016-Dec-31 06:21N 37°17' W 009°21'1215.1
2016-Dec-31 05:33N 37°27' W 009°13'1515.3
2016-Dec-31 04:33N 37°39' W 009°02'1515.1
2016-Dec-31 03:33N 37°52' W 008°52'4 4.2
2016-Dec-31 02:32N 37°56' W 008°51'0 0.0
2016-Dec-31 01:32N 37°56' W 008°51'0 0.0
2016-Dec-31 00:32N 37°56' W 008°51'0 0.0
2016-Dec-30 23:32N 37°56' W 008°51'0 0.0
2016-Dec-30 22:32N 37°56' W 008°51'0 0.0
2016-Dec-30 21:32N 37°56' W 008°51'0 0.0
2016-Dec-30 20:32N 37°56' W 008°51'0 0.0
2016-Dec-30 19:32N 37°56' W 008°51'0 0.0
2016-Dec-30 18:32N 37°56' W 008°51'0 0.0
2016-Dec-30 17:32N 37°56' W 008°51'0 0.0
2016-Dec-30 16:32N 37°56' W 008°51'0 0.0
2016-Dec-30 15:32N 37°56' W 008°51'0 0.0
2016-Dec-30 14:32N 37°56' W 008°51'0 0.0
2016-Dec-30 13:32N 37°56' W 008°51'1 1.0
2016-Dec-30 12:33N 37°55' W 008°50'4 3.9
2016-Dec-30 11:33N 37°52' W 008°53'6 6.3
2016-Dec-30 10:33N 37°49' W 008°60'0 0.4
2016-Dec-30 09:33N 37°49' W 008°60'1 0.6
2016-Dec-30 08:33N 37°49' W 008°59'0 0.4
2016-Dec-30 07:33N 37°50' W 008°59'2 2.4
2016-Dec-30 06:33N 37°51' W 009°01'1 0.6
2016-Dec-30 05:33N 37°51' W 009°01'1 0.5
2016-Dec-30 04:33N 37°50' W 009°00'0 0.4
2016-Dec-30 03:34N 37°50' W 008°60'1 1.5
2016-Dec-30 02:34N 37°52' W 009°00'0 0.4
2016-Dec-30 01:33N 37°52' W 008°59'1 1.0
2016-Dec-30 00:34N 37°51' W 009°00'2 1.8
2016-Dec-29 23:34N 37°52' W 009°02'1 0.8
2016-Dec-29 22:34N 37°52' W 009°02'1 0.8
2016-Dec-29 21:33N 37°51' W 009°00'3 2.6
2016-Dec-29 20:33N 37°53' W 009°03'9 8.7
2016-Dec-29 19:33N 37°59' W 009°11'9 9.1
2016-Dec-29 18:33N 38°05' W 009°20'10 9.6
2016-Dec-29 17:33N 38°11' W 009°29'1110.7
2016-Dec-29 16:33N 38°18' W 009°40'1414.0
2016-Dec-29 15:32N 38°28' W 009°53'1515.2
2016-Dec-29 14:32N 38°39' W 010°06'22415.7
2016-Dec-29 00:18N 42°23' W 010°07'16715.5
2016-Dec-28 13:33N 44°60' W 008°49'14315.4
2016-Dec-28 04:17N 47°06' W 007°12'3015.2
2016-Dec-28 02:20N 47°32' W 006°52'  

Dump ship's entire track history